Time;durP1;ratioP1;P1;durP2;ratioP2;P2;SDS_P1;SDS_P2;PMS_P1;PMS_P2;Temp;Humidity;BMP_temperature;BMP_pressure;BME280_temperature;BME280_humidity;BME280_pressure;Samples;Min_cycle;Max_cycle;Signal;HPM_P1;HPM_P2
2023/08/25 00:00:28;;;;;;;5.20;3.20;;;;;;;20.63;57.55;100400.73;111033;1210;138906;-62
2023/08/25 00:02:54;;;;;;;7.30;3.90;;;;;;;20.61;57.51;100399.41;111216;1209;97676;-62
2023/08/25 00:05:19;;;;;;;6.50;4.00;;;;;;;20.59;57.55;100397.63;110992;1211;138382;-62
2023/08/25 00:07:44;;;;;;;7.50;3.80;;;;;;;20.57;57.54;100395.08;111144;1209;97662;-62
2023/08/25 00:10:09;;;;;;;13.90;3.70;;;;;;;20.55;57.65;100389.42;111130;1211;140892;-63
2023/08/25 00:12:35;;;;;;;8.20;3.60;;;;;;;20.54;57.63;100391.77;111086;1211;97595;-62
2023/08/25 00:15:00;;;;;;;5.70;3.60;;;;;;;20.54;57.70;100389.41;111262;1211;98830;-63
2023/08/25 00:17:25;;;;;;;5.60;3.40;;;;;;;20.54;57.74;100386.86;111045;1208;139073;-62
2023/08/25 00:19:51;;;;;;;5.40;3.90;;;;;;;20.52;57.76;100382.09;111225;1211;97702;-62
2023/08/25 00:22:17;;;;;;;7.20;3.80;;;;;;;20.51;57.79;100380.70;110939;1211;138469;-62
2023/08/25 00:24:42;;;;;;;11.20;4.20;;;;;;;20.51;57.77;100375.48;111151;1211;97568;-62
2023/08/25 00:27:08;;;;;;;5.20;3.40;;;;;;;20.51;57.89;100379.68;111241;1208;97658;-62
2023/08/25 00:29:33;;;;;;;11.70;3.90;;;;;;;20.50;57.97;100386.30;110994;1211;138716;-62
2023/08/25 00:31:59;;;;;;;9.90;3.90;;;;;;;20.51;57.98;100389.42;111163;1210;95019;-62
2023/08/25 00:34:24;;;;;;;6.90;3.20;;;;;;;20.51;57.97;100383.58;111030;1211;139170;-62
2023/08/25 00:36:49;;;;;;;11.30;3.70;;;;;;;20.52;58.02;100372.81;111087;1211;98071;-63
2023/08/25 00:39:16;;;;;;;5.30;3.60;;;;;;;20.53;58.06;100369.46;111180;1208;97572;-62
2023/08/25 00:41:41;;;;;;;7.00;3.80;;;;;;;20.54;58.08;100364.45;111028;1211;138095;-62
2023/08/25 00:44:06;;;;;;;6.20;3.60;;;;;;;20.55;58.07;100355.85;111155;1211;98072;-61
2023/08/25 00:46:32;;;;;;;7.80;3.80;;;;;;;20.55;58.10;100346.06;111111;1212;137914;-62
2023/08/25 00:48:57;;;;;;;8.10;4.20;;;;;;;20.53;58.17;100337.85;111112;1211;97681;-62
2023/08/25 00:51:25;;;;;;;7.10;4.20;;;;;;;20.51;58.17;100330.78;111166;1210;97675;-61
2023/08/25 00:53:50;;;;;;;11.00;4.10;;;;;;;20.52;58.24;100331.39;111017;1208;139257;-62
2023/08/25 00:56:17;;;;;;;8.90;3.80;;;;;;;20.52;58.18;100333.28;111169;1211;97727;-61
2023/08/25 00:58:43;;;;;;;8.80;3.80;;;;;;;20.51;58.29;100335.31;111035;1208;139823;-62
2023/08/25 01:01:09;;;;;;;7.60;3.70;;;;;;;20.50;58.24;100339.78;111224;1211;97601;-62
2023/08/25 01:03:38;;;;;;;10.10;4.10;;;;;;;20.51;58.39;100344.11;111172;1208;97565;-61
2023/08/25 01:06:03;;;;;;;5.30;3.30;;;;;;;20.51;58.34;100340.59;111084;1211;140238;-62
2023/08/25 01:08:30;;;;;;;9.60;3.90;;;;;;;20.52;58.37;100335.64;111106;1211;97697;-62
2023/08/25 01:11:14;;;;;;;7.00;3.90;;;;;;;20.53;58.55;100331.56;111232;1211;139151;-62
2023/08/25 01:14:04;;;;;;;5.60;3.50;;;;;;;20.55;58.43;100330.27;111140;1211;97635;-62
2023/08/25 01:16:37;;;;;;;9.00;4.00;;;;;;;20.56;58.49;100329.08;111047;1209;139264;-62
2023/08/25 01:19:23;;;;;;;8.40;4.30;;;;;;;20.58;58.51;100330.14;111097;1206;97566;-62
2023/08/25 01:21:51;;;;;;;7.70;4.20;;;;;;;20.60;58.52;100328.33;111109;1211;95032;-62
2023/08/25 01:24:25;;;;;;;7.40;4.10;;;;;;;20.62;58.61;100321.99;111094;1208;139429;-62
2023/08/25 01:26:51;;;;;;;8.90;4.20;;;;;;;20.62;58.45;100313.25;111178;1209;97684;-61
2023/08/25 01:29:16;;;;;;;9.40;3.70;;;;;;;20.61;58.57;100316.27;111036;1208;138100;-62
2023/08/25 01:31:41;;;;;;;9.40;4.10;;;;;;;20.58;58.50;100319.26;111191;1209;97577;-62
2023/08/25 01:34:07;;;;;;;6.20;3.80;;;;;;;20.57;58.55;100326.27;111000;1209;138454;-62
2023/08/25 01:36:44;;;;;;;9.60;4.10;;;;;;;20.55;58.58;100326.42;111147;1211;99223;-62
2023/08/25 01:39:14;;;;;;;10.80;4.10;;;;;;;20.55;58.58;100320.82;111069;1211;99530;-62
2023/08/25 01:41:49;;;;;;;8.20;4.00;;;;;;;20.52;58.58;100315.26;111154;1209;139700;-62
2023/08/25 01:44:18;;;;;;;7.30;4.40;;;;;;;20.51;58.68;100309.98;111222;1210;97767;-61
2023/08/25 01:46:46;;;;;;;7.70;4.10;;;;;;;20.49;58.64;100301.42;111037;1209;138056;-62
2023/08/25 01:49:14;;;;;;;6.50;4.40;;;;;;;20.45;58.62;100296.29;111274;1211;97613;-62
2023/08/25 01:51:40;;;;;;;10.40;4.40;;;;;;;20.44;58.74;100294.81;111020;1206;97671;-62
2023/08/25 01:54:05;;;;;;;8.00;4.00;;;;;;;20.43;58.82;100295.77;110967;1209;138509;-61
2023/08/25 01:56:31;;;;;;;8.60;4.00;;;;;;;20.42;58.84;100293.48;111211;1208;97652;-61
2023/08/25 01:58:56;;;;;;;8.40;3.80;;;;;;;20.42;58.92;100294.95;110988;1209;138422;-61
2023/08/25 02:01:21;;;;;;;5.60;3.80;;;;;;;20.43;58.95;100296.16;111075;1210;100523;-61
2023/08/25 02:03:46;;;;;;;13.10;3.60;;;;;;;20.44;59.04;100295.70;111179;1209;96277;-61
2023/08/25 02:06:12;;;;;;;8.20;4.20;;;;;;;20.43;59.06;100290.31;111016;1212;138745;-61
2023/08/25 02:08:37;;;;;;;8.50;4.10;;;;;;;20.43;59.18;100289.59;111256;1209;97582;-61
2023/08/25 02:11:03;;;;;;;9.40;4.40;;;;;;;20.43;59.26;100289.02;110978;1212;138513;-61
2023/08/25 02:13:29;;;;;;;5.80;4.10;;;;;;;20.44;59.19;100285.19;111094;1211;97594;-62
2023/08/25 02:15:55;;;;;;;13.50;4.30;;;;;;;20.43;59.26;100286.73;111207;1210;99041;-61
2023/08/25 02:18:20;;;;;;;8.60;4.10;;;;;;;20.41;59.41;100284.12;110974;1211;140602;-62
2023/08/25 02:20:45;;;;;;;7.20;4.20;;;;;;;20.42;59.36;100278.79;111205;1211;97671;-62
2023/08/25 02:23:11;;;;;;;7.50;4.20;;;;;;;20.43;59.43;100284.04;111110;1210;138208;-62
2023/08/25 02:25:36;;;;;;;7.50;3.90;;;;;;;20.43;59.55;100281.95;111077;1210;97706;-62
2023/08/25 02:28:01;;;;;;;7.60;4.10;;;;;;;20.44;59.54;100282.09;111171;1209;97606;-62
2023/08/25 02:30:27;;;;;;;9.60;4.50;;;;;;;20.44;59.54;100277.34;111031;1208;138235;-61
2023/08/25 02:32:54;;;;;;;9.70;4.70;;;;;;;20.45;59.63;100278.75;111289;1209;97578;-62
2023/08/25 02:35:20;;;;;;;5.70;3.90;;;;;;;20.44;59.62;100276.30;111089;1209;138198;-62
2023/08/25 02:38:08;;;;;;;10.10;4.40;;;;;;;20.43;59.74;100273.09;111210;1209;97569;-61
2023/08/25 02:40:34;;;;;;;10.20;4.70;;;;;;;20.42;59.84;100268.27;111132;1210;138336;-62
2023/08/25 02:43:04;;;;;;;6.30;4.30;;;;;;;20.39;59.94;100262.84;111208;1209;97540;-61
2023/08/25 02:45:30;;;;;;;10.30;4.90;;;;;;;20.35;60.12;100266.85;111161;1209;97609;-61
2023/08/25 02:47:55;;;;;;;8.20;4.80;;;;;;;20.31;60.30;100267.71;111031;1210;138763;-61
2023/08/25 02:50:21;;;;;;;8.90;4.30;;;;;;;20.27;60.46;100265.06;111204;1209;97630;-61
2023/08/25 02:52:47;;;;;;;14.50;6.10;;;;;;;20.21;60.66;100267.73;111103;1210;140292;-61
2023/08/25 02:55:16;;;;;;;11.10;5.50;;;;;;;20.17;60.89;100267.06;111073;1211;97653;-62
2023/08/25 02:57:42;;;;;;;10.70;5.10;;;;;;;20.11;61.03;100266.49;111280;1212;97873;-62
2023/08/25 03:00:09;;;;;;;10.90;5.20;;;;;;;20.04;61.32;100262.94;111063;1209;139014;-62
2023/08/25 03:02:34;;;;;;;9.90;5.30;;;;;;;19.96;61.51;100257.09;111142;1208;98340;-63
2023/08/25 03:05:00;;;;;;;9.70;4.90;;;;;;;19.88;61.67;100250.63;111063;1212;139094;-63
2023/08/25 03:07:25;;;;;;;10.10;5.50;;;;;;;19.78;61.92;100245.83;111132;1206;97764;-63
2023/08/25 03:09:50;;;;;;;12.50;5.90;;;;;;;19.72;62.12;100247.65;111284;1208;98693;-63
2023/08/25 03:12:15;;;;;;;12.40;5.70;;;;;;;19.66;62.43;100246.02;111018;1209;139228;-63
2023/08/25 03:14:41;;;;;;;11.10;5.90;;;;;;;19.62;62.74;100243.48;111090;1212;98353;-63
2023/08/25 03:17:06;;;;;;;10.40;5.70;;;;;;;19.59;62.88;100244.77;111042;1209;138535;-63
2023/08/25 03:19:31;;;;;;;9.00;5.50;;;;;;;19.57;63.17;100243.15;111123;1212;97581;-63
2023/08/25 03:21:56;;;;;;;8.70;5.00;;;;;;;19.55;63.35;100234.87;111215;1209;97707;-63
2023/08/25 03:24:22;;;;;;;18.90;6.60;;;;;;;19.54;63.55;100232.02;110979;1212;138082;-64
2023/08/25 03:26:47;;;;;;;12.90;5.50;;;;;;;19.52;63.76;100222.24;111243;1206;97595;-64
2023/08/25 03:29:12;;;;;;;11.50;5.60;;;;;;;19.48;63.93;100219.11;110971;1207;139267;-63
2023/08/25 03:31:38;;;;;;;10.50;5.70;;;;;;;19.44;64.17;100218.70;111104;1210;98158;-63
2023/08/25 03:34:03;;;;;;;11.10;6.00;;;;;;;19.41;64.46;100218.96;111141;1208;97662;-64
2023/08/25 03:36:30;;;;;;;12.00;6.40;;;;;;;19.39;64.70;100215.49;111053;1206;139558;-63
2023/08/25 03:38:56;;;;;;;10.20;5.70;;;;;;;19.37;65.13;100215.52;111105;1210;97623;-63
2023/08/25 03:41:21;;;;;;;9.50;5.50;;;;;;;19.36;65.30;100211.05;111125;1209;138617;-64
2023/08/25 03:43:46;;;;;;;9.30;5.50;;;;;;;19.32;65.53;100207.42;111199;1209;97577;-64
2023/08/25 03:46:12;;;;;;;11.30;6.00;;;;;;;19.29;65.73;100196.88;111106;1212;139556;-65
2023/08/25 03:48:37;;;;;;;7.90;5.40;;;;;;;19.24;65.83;100190.61;111197;1212;97629;-64
2023/08/25 03:51:02;;;;;;;9.20;5.90;;;;;;;19.20;66.25;100186.77;111157;1206;98069;-64
2023/08/25 03:53:27;;;;;;;12.10;6.10;;;;;;;19.16;66.47;100188.04;111077;1212;139052;-63
2023/08/25 03:55:53;;;;;;;12.80;6.40;;;;;;;19.10;66.48;100186.14;111201;1210;97586;-64
2023/08/25 03:58:18;;;;;;;12.80;6.40;;;;;;;19.03;66.82;100188.38;111128;1209;139204;-63
2023/08/25 04:00:50;;;;;;;13.10;6.30;;;;;;;18.97;67.18;100186.95;111177;1212;97664;-63
2023/08/25 04:03:15;;;;;;;12.80;6.30;;;;;;;18.92;67.49;100193.17;111188;1209;96805;-62
2023/08/25 04:05:40;;;;;;;12.40;6.20;;;;;;;18.88;67.79;100190.23;111060;1209;139154;-63
2023/08/25 04:08:06;;;;;;;13.20;6.90;;;;;;;18.88;67.98;100186.66;111253;1212;98024;-62
2023/08/25 04:10:31;;;;;;;15.50;6.80;;;;;;;18.89;68.06;100184.75;111069;1209;138777;-62
2023/08/25 04:12:56;;;;;;;11.30;6.90;;;;;;;18.89;68.17;100183.48;111342;1212;97883;-63
2023/08/25 04:15:22;;;;;;;14.30;6.80;;;;;;;18.90;68.55;100188.44;111140;1209;97643;-62
2023/08/25 04:17:47;;;;;;;13.70;7.60;;;;;;;18.94;68.59;100191.39;111137;1211;138603;-62
2023/08/25 04:20:14;;;;;;;9.40;6.90;;;;;;;18.96;68.83;100193.15;111198;1209;97631;-62
2023/08/25 04:22:40;;;;;;;10.80;6.80;;;;;;;18.98;68.86;100192.97;111057;1210;138701;-62
2023/08/25 04:25:06;;;;;;;14.60;6.80;;;;;;;19.01;69.05;100186.64;111173;1207;97546;-63
2023/08/25 04:27:32;;;;;;;18.20;6.70;;;;;;;19.04;69.06;100183.46;111175;1209;97723;-63
2023/08/25 04:29:57;;;;;;;14.50;8.40;;;;;;;19.06;69.12;100185.02;111023;1212;138715;-63
2023/08/25 04:32:22;;;;;;;16.10;7.20;;;;;;;19.10;69.32;100183.27;111039;1209;100050;-65
2023/08/25 04:34:48;;;;;;;12.50;7.00;;;;;;;19.13;69.29;100183.92;111082;1209;139035;-63
2023/08/25 04:37:13;;;;;;;12.00;7.10;;;;;;;19.16;69.35;100186.20;111154;1210;97613;-63
2023/08/25 04:39:40;;;;;;;12.10;7.60;;;;;;;19.18;69.40;100182.25;111125;1209;96092;-63
2023/08/25 04:42:05;;;;;;;15.60;8.20;;;;;;;19.19;69.44;100176.30;111044;1209;139483;-64
2023/08/25 04:44:31;;;;;;;10.60;7.50;;;;;;;19.20;69.53;100170.97;111105;1212;97617;-64
2023/08/25 04:46:56;;;;;;;12.70;7.40;;;;;;;19.21;69.56;100174.00;111149;1212;139429;-64
2023/08/25 04:49:21;;;;;;;12.90;7.80;;;;;;;19.20;69.64;100170.88;111161;1209;97581;-64
2023/08/25 04:51:46;;;;;;;11.30;8.00;;;;;;;19.21;69.99;100175.66;111255;1209;99324;-63
2023/08/25 04:54:12;;;;;;;14.80;7.30;;;;;;;19.25;70.24;100177.66;111022;1209;138624;-62
2023/08/25 04:56:37;;;;;;;12.10;7.70;;;;;;;19.28;70.15;100171.39;111153;1209;97696;-63
2023/08/25 04:59:03;;;;;;;17.30;8.50;;;;;;;19.30;70.10;100172.80;111027;1210;139046;-63
2023/08/25 05:01:28;;;;;;;12.70;8.30;;;;;;;19.31;70.32;100168.38;111064;1209;97604;-63
2023/08/25 05:03:55;;;;;;;13.70;7.60;;;;;;;19.32;70.56;100164.69;111256;1212;97744;-63
2023/08/25 05:06:21;;;;;;;13.00;7.80;;;;;;;19.34;70.49;100159.63;111055;1209;139490;-63
2023/08/25 05:08:47;;;;;;;16.50;8.10;;;;;;;19.33;70.54;100154.98;111136;1209;97664;-63
2023/08/25 05:11:13;;;;;;;11.80;8.00;;;;;;;19.34;70.65;100151.45;110896;1209;138598;-63
2023/08/25 05:13:38;;;;;;;13.90;7.60;;;;;;;19.37;70.71;100142.66;111107;1211;97804;-63
2023/08/25 05:16:04;;;;;;;14.10;8.40;;;;;;;19.40;70.73;100133.55;111159;1210;98056;-63
2023/08/25 05:18:31;;;;;;;13.40;7.80;;;;;;;19.41;70.75;100120.77;111243;1212;97688;-63
2023/08/25 05:20:58;;;;;;;13.90;8.30;;;;;;;19.41;70.87;100109.87;111164;1210;96902;-62
2023/08/25 05:23:24;;;;;;;12.10;8.00;;;;;;;19.40;70.79;100098.77;111057;1209;141085;-63
2023/08/25 05:25:49;;;;;;;23.00;9.30;;;;;;;19.37;70.94;100092.66;111000;1212;97645;-63
2023/08/25 05:28:14;;;;;;;12.10;8.30;;;;;;;19.36;71.04;100094.42;110876;1209;142412;-63
2023/08/25 05:30:39;;;;;;;10.60;7.30;;;;;;;19.41;71.23;100099.23;111043;1209;99092;-63
2023/08/25 05:33:05;;;;;;;14.30;8.10;;;;;;;19.47;71.31;100095.59;111079;1219;97722;-63
2023/08/25 05:35:30;;;;;;;13.60;8.60;;;;;;;19.54;71.40;100089.35;110985;1208;139096;-63
2023/08/25 05:37:55;;;;;;;14.80;8.00;;;;;;;19.60;71.48;100080.14;111025;1212;97729;-64
2023/08/25 05:40:22;;;;;;;13.60;8.30;;;;;;;19.66;71.49;100070.86;110921;1206;138713;-63
2023/08/25 05:42:47;;;;;;;13.30;8.70;;;;;;;19.72;71.37;100065.06;111156;1212;97665;-62
2023/08/25 05:45:12;;;;;;;12.60;8.70;;;;;;;19.76;71.44;100052.72;111052;1209;98100;-63
2023/08/25 05:47:38;;;;;;;19.50;9.50;;;;;;;19.81;71.44;100052.89;110855;1206;138794;-62
2023/08/25 05:50:04;;;;;;;13.00;8.70;;;;;;;19.85;71.58;100051.98;111037;1210;97716;-63
2023/08/25 05:52:29;;;;;;;16.70;8.70;;;;;;;19.91;71.59;100048.52;111475;1208;139300;-63
2023/08/25 05:54:54;;;;;;;13.30;8.90;;;;;;;19.97;71.75;100048.86;111047;1209;97652;-63
2023/08/25 05:57:19;;;;;;;14.30;9.00;;;;;;;20.02;71.73;100046.17;111067;1211;97661;-62
2023/08/25 05:59:44;;;;;;;19.40;8.50;;;;;;;20.06;71.71;100043.63;110959;1209;139099;-63
2023/08/25 06:02:10;;;;;;;17.20;9.40;;;;;;;20.09;71.71;100042.05;111056;1212;97620;-63
2023/08/25 06:04:35;;;;;;;16.30;8.60;;;;;;;20.13;71.73;100045.18;110895;1212;139478;-63
2023/08/25 06:07:01;;;;;;;13.40;9.70;;;;;;;20.20;71.90;100044.94;110927;1209;97569;-62
2023/08/25 06:09:26;;;;;;;17.50;8.30;;;;;;;20.29;71.94;100039.83;110996;1210;97744;-63
2023/08/25 06:11:53;;;;;;;18.20;8.40;;;;;;;20.41;71.91;100038.08;110920;1209;140126;-63
2023/08/25 06:14:18;;;;;;;18.00;9.00;;;;;;;20.53;71.91;100036.75;111034;1211;98922;-62
2023/08/25 06:16:44;;;;;;;17.30;9.20;;;;;;;20.62;71.81;100037.89;111134;1211;138894;-64
2023/08/25 06:19:09;;;;;;;17.10;8.90;;;;;;;20.68;71.75;100034.41;111168;1209;97667;-62
2023/08/25 06:21:35;;;;;;;17.50;9.10;;;;;;;20.71;71.58;100038.45;110978;1211;99124;-62
2023/08/25 06:24:00;;;;;;;19.60;8.90;;;;;;;20.76;71.70;100047.98;111057;1208;138476;-62
2023/08/25 06:26:25;;;;;;;15.90;8.80;;;;;;;20.82;71.73;100049.16;111140;1212;97672;-62
2023/08/25 06:28:56;;;;;;;16.00;8.20;;;;;;;20.88;71.63;100047.31;111098;1211;138572;-62
2023/08/25 06:31:21;;;;;;;;;;;;;;;20.89;71.48;100055.73;111225;1212;97559;-63
2023/08/25 06:33:46;;;;;;;24.60;9.50;;;;;;;20.87;71.44;100063.45;111179;1210;97566;-64
2023/08/25 06:36:11;;;;;;;16.20;9.40;;;;;;;20.86;71.40;100065.32;111110;1210;140275;-63
2023/08/25 06:38:37;;;;;;;16.50;9.20;;;;;;;20.88;71.47;100072.73;111177;1209;97798;-64
2023/08/25 06:41:03;;;;;;;14.60;10.10;;;;;;;20.91;71.49;100075.02;111139;1208;139023;-64
2023/08/25 06:43:29;;;;;;;22.10;9.90;;;;;;;20.93;71.42;100079.02;111157;1209;102715;-64
2023/08/25 06:45:54;;;;;;;15.40;10.50;;;;;;;20.93;71.38;100080.52;111221;1209;96167;-66
2023/08/25 06:48:21;;;;;;;15.30;9.20;;;;;;;20.93;71.39;100085.92;111081;1209;138507;-64
2023/08/25 06:50:47;;;;;;;14.90;9.10;;;;;;;20.92;71.29;100086.70;111163;1211;97700;-64
2023/08/25 06:53:12;;;;;;;18.70;9.90;;;;;;;20.90;71.31;100087.88;110943;1206;140888;-62
2023/08/25 06:55:37;;;;;;;17.80;9.90;;;;;;;20.84;71.23;100085.00;111112;1209;97692;-63
2023/08/25 06:58:05;;;;;;;17.70;9.30;;;;;;;20.81;71.29;100087.21;110882;1208;99355;-64
2023/08/25 07:00:31;;;;;;;27.20;10.90;;;;;;;20.78;71.35;100084.86;111025;1208;97580;-63
2023/08/25 07:02:56;;;;;;;13.40;9.70;;;;;;;20.75;71.18;100084.41;111052;1209;97713;-63
2023/08/25 07:05:23;;;;;;;16.20;9.90;;;;;;;20.71;71.29;100079.48;110888;1207;139090;-63
2023/08/25 07:07:51;;;;;;;17.50;10.80;;;;;;;20.70;71.34;100071.63;110934;1209;97603;-63
2023/08/25 07:10:17;;;;;;;15.70;10.70;;;;;;;20.67;71.38;100065.20;110964;1210;139676;-63
2023/08/25 07:12:43;;;;;;;16.10;9.70;;;;;;;20.66;71.32;100058.73;111097;1210;97658;-63
2023/08/25 07:15:09;;;;;;;16.30;10.20;;;;;;;20.70;71.41;100054.14;111069;1212;98941;-63
2023/08/25 07:17:35;;;;;;;16.90;9.50;;;;;;;20.76;71.41;100044.50;110873;1210;139944;-63
2023/08/25 07:20:01;;;;;;;18.00;10.30;;;;;;;20.82;71.51;100038.43;111028;1210;97884;-66
2023/08/25 07:22:26;;;;;;;20.60;11.50;;;;;;;20.89;71.51;100040.71;110895;1209;142099;-63
2023/08/25 07:24:53;;;;;;;20.20;10.50;;;;;;;20.94;71.55;100041.09;111020;1208;97763;-63
2023/08/25 07:27:20;;;;;;;22.40;10.80;;;;;;;20.98;71.55;100037.27;110968;1209;97585;-63
2023/08/25 07:29:45;;;;;;;20.10;9.90;;;;;;;21.05;71.50;100039.89;110966;1212;138798;-62
2023/08/25 07:32:10;;;;;;;26.50;10.60;;;;;;;21.11;71.49;100040.36;111164;1212;97659;-63
2023/08/25 07:34:36;;;;;;;18.30;10.30;;;;;;;21.20;71.55;100044.27;110892;1209;141204;-63
2023/08/25 07:37:02;;;;;;;14.50;9.50;;;;;;;21.27;71.51;100046.71;111034;1211;98875;-63
2023/08/25 07:39:27;;;;;;;16.50;10.50;;;;;;;21.32;71.43;100049.10;111196;1209;97630;-63
2023/08/25 07:41:52;;;;;;;17.10;10.20;;;;;;;21.38;71.38;100050.27;110878;1209;139464;-62
2023/08/25 07:44:18;;;;;;;16.50;9.70;;;;;;;21.47;71.37;100049.03;111049;1212;97578;-63
2023/08/25 07:46:43;;;;;;;13.60;9.50;;;;;;;21.57;71.27;100046.57;110907;1210;140387;-63
2023/08/25 07:49:09;;;;;;;18.20;9.50;;;;;;;21.68;71.26;100041.31;110918;1210;97671;-63
2023/08/25 07:51:37;;;;;;;16.50;9.60;;;;;;;21.76;71.27;100034.38;110734;1212;97675;-63
2023/08/25 07:54:04;;;;;;;13.40;9.20;;;;;;;21.82;71.04;100030.63;110598;1210;141543;-63
2023/08/25 07:56:29;;;;;;;16.70;8.50;;;;;;;21.88;71.07;100026.92;110899;1212;97565;-63
2023/08/25 07:58:55;;;;;;;16.70;8.20;;;;;;;21.96;71.09;100027.04;111019;1209;139055;-63
2023/08/25 08:01:20;;;;;;;13.00;8.90;;;;;;;22.06;71.11;100023.55;110971;1207;97676;-63
2023/08/25 08:03:45;;;;;;;15.60;9.20;;;;;;;22.15;70.96;100016.38;111003;1209;96851;-62
2023/08/25 08:06:11;;;;;;;12.40;9.10;;;;;;;22.24;70.90;100015.85;110977;1211;140269;-62
2023/08/25 08:08:37;;;;;;;17.30;10.20;;;;;;;22.31;70.65;100013.84;110913;1211;96576;-62
2023/08/25 08:11:03;;;;;;;18.30;8.80;;;;;;;22.37;70.69;100012.04;110880;1208;140872;-63
2023/08/25 08:13:29;;;;;;;18.10;8.90;;;;;;;22.45;70.60;100013.17;111046;1210;97646;-63
2023/08/25 08:15:55;;;;;;;16.10;8.70;;;;;;;22.54;70.64;100013.89;110987;1210;98128;-63
2023/08/25 08:18:20;;;;;;;11.10;8.00;;;;;;;22.62;70.48;100014.70;110831;1209;139744;-63
2023/08/25 08:20:45;;;;;;;21.10;9.00;;;;;;;22.71;70.50;100013.20;111049;1211;97723;-63
2023/08/25 08:23:11;;;;;;;16.60;9.00;;;;;;;22.80;70.12;100015.17;110860;1211;139449;-63
2023/08/25 08:25:36;;;;;;;19.10;8.80;;;;;;;22.88;69.91;100013.26;111056;1210;95045;-63
2023/08/25 08:28:02;;;;;;;16.60;8.10;;;;;;;22.96;69.83;100011.88;110981;1212;99938;-62
2023/08/25 08:30:28;;;;;;;14.60;7.90;;;;;;;23.04;69.88;100012.16;110849;1209;139523;-62
2023/08/25 08:32:53;;;;;;;21.30;8.40;;;;;;;23.15;69.71;100010.06;110962;1211;97656;-63
2023/08/25 08:35:19;;;;;;;14.50;9.30;;;;;;;23.23;69.60;100015.95;110822;1210;138542;-62
2023/08/25 08:37:44;;;;;;;22.40;8.10;;;;;;;23.31;69.62;100014.56;110953;1208;97603;-62
2023/08/25 08:40:10;;;;;;;24.00;9.10;;;;;;;23.39;69.63;100009.42;110805;1212;139226;-62
2023/08/25 08:42:37;;;;;;;19.60;8.60;;;;;;;23.48;69.34;100009.38;110909;1209;98014;-63
2023/08/25 08:45:06;;;;;;;20.80;8.50;;;;;;;23.56;69.52;100005.02;110927;1212;97592;-63
2023/08/25 08:47:34;;;;;;;19.50;7.80;;;;;;;23.66;69.20;100007.42;110823;1211;139243;-63
2023/08/25 08:50:00;;;;;;;17.50;8.40;;;;;;;23.75;69.28;100008.10;110893;1209;97692;-62
2023/08/25 08:52:29;;;;;;;19.20;8.10;;;;;;;23.85;69.17;100011.01;110758;1209;140343;-63
2023/08/25 08:54:57;;;;;;;11.60;8.00;;;;;;;23.93;69.17;100008.12;110928;1208;97493;-61
2023/08/25 08:57:24;;;;;;;16.40;8.20;;;;;;;23.98;69.00;100009.60;111015;1210;97610;-61
2023/08/25 08:59:51;;;;;;;15.50;7.40;;;;;;;24.06;68.69;100010.95;110888;1209;138978;-62
2023/08/25 09:02:18;;;;;;;15.20;7.30;;;;;;;24.13;68.51;100013.73;110978;1208;97611;-64
2023/08/25 09:04:45;;;;;;;14.30;7.70;;;;;;;24.18;68.68;100011.17;110913;1210;139246;-63
2023/08/25 09:07:11;;;;;;;17.60;8.30;;;;;;;24.27;68.51;100009.36;111021;1208;110404;-62
2023/08/25 09:09:38;;;;;;;17.10;10.20;;;;;;;24.35;68.46;100011.80;110911;1211;97666;-62
2023/08/25 09:12:05;;;;;;;13.40;7.30;;;;;;;24.42;68.31;100015.37;110810;1212;140540;-62
2023/08/25 09:14:30;;;;;;;12.90;7.30;;;;;;;24.51;68.25;100020.58;111145;1208;97578;-62
2023/08/25 09:17:02;;;;;;;11.40;7.10;;;;;;;24.62;68.12;100022.09;110899;1209;139864;-62
2023/08/25 09:19:31;;;;;;;12.20;6.50;;;;;;;24.72;68.13;100026.39;111032;1211;97631;-61
2023/08/25 09:21:58;;;;;;;11.00;6.90;;;;;;;24.82;67.99;100024.70;110970;1209;99385;-64
2023/08/25 09:24:23;;;;;;;13.50;6.10;;;;;;;24.89;67.68;100017.09;110773;1209;138446;-63
2023/08/25 09:26:50;;;;;;;13.10;7.00;;;;;;;24.96;67.45;100012.66;111064;1209;98030;-64
2023/08/25 09:29:16;;;;;;;12.00;6.60;;;;;;;25.05;67.45;100013.90;110872;1211;139066;-61
2023/08/25 09:31:43;;;;;;;9.70;6.40;;;;;;;25.13;67.28;100014.63;111055;1209;97681;-61
2023/08/25 09:34:10;;;;;;;13.80;7.00;;;;;;;25.23;67.06;100022.19;110934;1209;139878;-62
2023/08/25 09:36:53;;;;;;;12.60;6.60;;;;;;;25.34;66.81;100030.86;111004;1209;97698;-62
2023/08/25 09:39:19;;;;;;;10.80;6.00;;;;;;;25.42;66.45;100044.48;111002;1209;103430;-62
2023/08/25 09:41:46;;;;;;;7.10;6.30;;;;;;;25.45;66.14;100040.87;110956;1209;138555;-62
2023/08/25 09:44:12;;;;;;;12.30;6.20;;;;;;;25.46;66.05;100035.25;110956;1208;97700;-62
2023/08/25 09:46:37;;;;;;;10.00;6.90;;;;;;;25.52;65.84;100030.02;110765;1210;139025;-62
2023/08/25 09:49:07;;;;;;;10.60;7.00;;;;;;;25.59;65.65;100024.42;110996;1208;96339;-62
2023/08/25 09:51:41;;;;;;;14.90;8.20;;;;;;;25.64;65.50;100027.88;111003;1210;97636;-62
2023/08/25 09:54:12;;;;;;;14.40;6.50;;;;;;;25.69;65.33;100033.88;111010;1209;138373;-61
2023/08/25 09:56:38;;;;;;;;;;;;;;;25.76;65.18;100034.56;111285;1210;97728;-62
2023/08/25 09:59:04;;;;;;;16.10;5.70;;;;;;;25.80;64.87;100035.88;111038;1209;124087;-61
2023/08/25 10:01:41;;;;;;;11.70;6.60;;;;;;;25.86;64.68;100041.31;111068;1211;97674;-62
2023/08/25 10:04:07;;;;;;;9.60;6.10;;;;;;;25.90;64.47;100037.48;110958;1211;140008;-62
2023/08/25 10:06:33;;;;;;;13.90;7.30;;;;;;;25.99;64.34;100038.21;111160;1208;97728;-61
2023/08/25 10:09:00;;;;;;;11.60;6.50;;;;;;;26.08;64.06;100032.39;111157;1211;97631;-61
2023/08/25 10:11:34;;;;;;;9.00;6.90;;;;;;;26.14;63.84;100025.05;110954;1210;140911;-62
2023/08/25 10:14:02;;;;;;;7.60;5.70;;;;;;;26.19;63.65;100014.19;111273;1211;97716;-61
2023/08/25 10:16:30;;;;;;;11.00;5.40;;;;;;;26.30;63.42;100010.98;111036;1209;139177;-61
2023/08/25 10:18:58;;;;;;;9.90;5.80;;;;;;;26.41;63.18;100012.55;111149;1208;97627;-62
2023/08/25 10:21:24;;;;;;;10.90;5.50;;;;;;;26.48;62.98;100015.04;111126;1211;99163;-62
2023/08/25 10:23:54;;;;;;;13.00;6.00;;;;;;;26.54;62.53;100021.84;111177;1210;140272;-62
2023/08/25 10:26:21;;;;;;;13.80;5.60;;;;;;;26.59;62.08;100025.39;111089;1210;96138;-62
2023/08/25 10:28:47;;;;;;;8.20;5.40;;;;;;;26.65;61.67;100028.88;110977;1208;139222;-62
2023/08/25 10:31:14;;;;;;;13.50;6.20;;;;;;;26.71;61.38;100028.69;111174;1208;97572;-61
2023/08/25 10:33:46;;;;;;;11.30;7.20;;;;;;;26.76;60.95;100028.44;111376;1209;97580;-63
2023/08/25 10:36:16;;;;;;;10.20;6.40;;;;;;;26.82;60.78;100027.86;111035;1206;137792;-61
2023/08/25 10:38:45;;;;;;;15.80;7.10;;;;;;;26.95;60.83;100028.97;111164;1209;97587;-60
2023/08/25 10:41:14;;;;;;;13.90;5.90;;;;;;;27.08;60.68;100023.14;111158;1208;139903;-60
2023/08/25 10:43:41;;;;;;;12.10;6.40;;;;;;;27.15;60.33;100018.77;111127;1208;97686;-61
2023/08/25 10:46:07;;;;;;;17.70;6.30;;;;;;;27.22;60.13;100016.80;111108;1209;139309;-61
2023/08/25 10:48:34;;;;;;;13.80;6.60;;;;;;;27.32;59.51;100016.69;111223;1208;96875;-62
2023/08/25 10:51:10;;;;;;;10.00;6.20;;;;;;;27.39;59.47;100018.40;111165;1211;98272;-61
2023/08/25 10:53:46;;;;;;;12.50;7.20;;;;;;;27.48;59.16;100017.21;110903;1206;139700;-60
2023/08/25 10:56:22;;;;;;;10.00;5.80;;;;;;;27.54;58.97;100014.33;111149;1208;97571;-62
2023/08/25 10:58:56;;;;;;;14.30;6.50;;;;;;;27.62;58.74;100017.59;111080;1208;139759;-61
2023/08/25 11:01:27;;;;;;;10.10;6.50;;;;;;;27.67;58.27;100023.68;111203;1208;102866;-62
2023/08/25 11:04:13;;;;;;;9.80;6.50;;;;;;;27.72;58.26;100026.92;111199;1210;97684;-61
2023/08/25 11:06:43;;;;;;;9.90;5.70;;;;;;;27.80;58.07;100029.02;111063;1211;99387;-62